sensor_id;sensor_type;location;lat;lon;timestamp;P1;P2;P0
45700;PMS5003;36277;32.852;-116.998;2022-10-17T00:02:02;2.00;2.00;1.00
45700;PMS5003;36277;32.852;-116.998;2022-10-17T00:04:28;1.20;1.20;1.20
45700;PMS5003;36277;32.852;-116.998;2022-10-17T00:06:55;2.00;2.00;1.40
45700;PMS5003;36277;32.852;-116.998;2022-10-17T00:09:21;1.00;1.00;1.00
45700;PMS5003;36277;32.852;-116.998;2022-10-17T00:11:47;2.00;2.00;2.00
45700;PMS5003;36277;32.852;-116.998;2022-10-17T00:14:13;1.40;1.40;1.40
45700;PMS5003;36277;32.852;-116.998;2022-10-17T00:16:39;1.40;1.40;1.20
45700;PMS5003;36277;32.852;-116.998;2022-10-17T00:19:06;2.00;2.00;2.00
45700;PMS5003;36277;32.852;-116.998;2022-10-17T00:21:32;1.40;1.40;1.00
45700;PMS5003;36277;32.852;-116.998;2022-10-17T00:23:59;2.00;2.00;2.00
45700;PMS5003;36277;32.852;-116.998;2022-10-17T00:26:26;0.00;0.00;0.00
45700;PMS5003;36277;32.852;-116.998;2022-10-17T00:28:55;1.40;1.40;1.40
45700;PMS5003;36277;32.852;-116.998;2022-10-17T00:31:22;1.80;1.80;1.60
45700;PMS5003;36277;32.852;-116.998;2022-10-17T00:33:49;1.00;1.00;1.00
45700;PMS5003;36277;32.852;-116.998;2022-10-17T00:36:17;0.20;0.20;0.20
45700;PMS5003;36277;32.852;-116.998;2022-10-17T00:38:46;1.00;1.00;1.00
45700;PMS5003;36277;32.852;-116.998;2022-10-17T00:41:15;1.20;1.20;1.00
45700;PMS5003;36277;32.852;-116.998;2022-10-17T00:46:25;1.20;1.20;1.00
45700;PMS5003;36277;32.852;-116.998;2022-10-17T00:48:53;1.00;1.00;1.00
45700;PMS5003;36277;32.852;-116.998;2022-10-17T00:52:04;1.00;1.00;1.00
45700;PMS5003;36277;32.852;-116.998;2022-10-17T00:54:11;2.00;2.00;2.00
45700;PMS5003;36277;32.852;-116.998;2022-10-17T00:56:41;1.00;1.00;1.00
45700;PMS5003;36277;32.852;-116.998;2022-10-17T00:59:08;1.00;1.00;1.00
45700;PMS5003;36277;32.852;-116.998;2022-10-17T01:01:37;1.60;1.60;1.00
45700;PMS5003;36277;32.852;-116.998;2022-10-17T01:04:07;1.60;1.60;1.40
45700;PMS5003;36277;32.852;-116.998;2022-10-17T01:06:34;1.00;1.00;1.00
45700;PMS5003;36277;32.852;-116.998;2022-10-17T01:09:01;1.40;1.40;1.40
45700;PMS5003;36277;32.852;-116.998;2022-10-17T01:14:13;1.40;1.40;1.00
45700;PMS5003;36277;32.852;-116.998;2022-10-17T01:16:51;1.00;1.00;1.00
45700;PMS5003;36277;32.852;-116.998;2022-10-17T01:19:39;1.20;1.20;0.20
45700;PMS5003;36277;32.852;-116.998;2022-10-17T01:22:40;1.00;1.00;1.00
45700;PMS5003;36277;32.852;-116.998;2022-10-17T01:25:49;1.00;1.00;1.00
45700;PMS5003;36277;32.852;-116.998;2022-10-17T01:31:24;1.00;1.00;0.80
45700;PMS5003;36277;32.852;-116.998;2022-10-17T01:39:22;0.00;0.00;0.00
45700;PMS5003;36277;32.852;-116.998;2022-10-17T01:42:10;0.80;0.80;0.80
45700;PMS5003;36277;32.852;-116.998;2022-10-17T01:44:52;0.80;0.80;0.60
45700;PMS5003;36277;32.852;-116.998;2022-10-17T01:47:25;0.00;0.00;0.00
45700;PMS5003;36277;32.852;-116.998;2022-10-17T01:50:03;1.00;1.00;1.00
45700;PMS5003;36277;32.852;-116.998;2022-10-17T01:52:48;0.60;0.60;0.60
45700;PMS5003;36277;32.852;-116.998;2022-10-17T01:55:20;1.00;1.00;1.00
45700;PMS5003;36277;32.852;-116.998;2022-10-17T01:57:56;0.00;0.00;0.00
45700;PMS5003;36277;32.852;-116.998;2022-10-17T02:00:30;0.60;0.60;0.60
45700;PMS5003;36277;32.852;-116.998;2022-10-17T02:03:01;1.00;1.00;1.00
45700;PMS5003;36277;32.852;-116.998;2022-10-17T02:05:32;1.00;1.00;1.00
45700;PMS5003;36277;32.852;-116.998;2022-10-17T02:08:02;0.00;0.00;0.00
45700;PMS5003;36277;32.852;-116.998;2022-10-17T02:24:07;0.00;0.00;0.00
45700;PMS5003;36277;32.852;-116.998;2022-10-17T02:27:05;1.00;1.00;1.00
45700;PMS5003;36277;32.852;-116.998;2022-10-17T02:30:38;1.00;1.00;1.00
45700;PMS5003;36277;32.852;-116.998;2022-10-17T02:32:44;0.00;0.00;0.00
45700;PMS5003;36277;32.852;-116.998;2022-10-17T02:35:24;1.00;1.00;1.00
45700;PMS5003;36277;32.852;-116.998;2022-10-17T02:37:55;1.00;1.00;1.00
45700;PMS5003;36277;32.852;-116.998;2022-10-17T02:40:24;1.00;1.00;0.60
45700;PMS5003;36277;32.852;-116.998;2022-10-17T02:42:52;0.20;0.20;0.00
45700;PMS5003;36277;32.852;-116.998;2022-10-17T02:45:20;1.00;1.00;1.00
45700;PMS5003;36277;32.852;-116.998;2022-10-17T02:50:38;1.00;1.00;1.00
45700;PMS5003;36277;32.852;-116.998;2022-10-17T02:56:31;1.00;1.00;1.00
45700;PMS5003;36277;32.852;-116.998;2022-10-17T02:59:05;1.00;1.00;1.00
45700;PMS5003;36277;32.852;-116.998;2022-10-17T03:01:36;0.00;0.00;0.00
45700;PMS5003;36277;32.852;-116.998;2022-10-17T03:04:04;1.00;1.00;1.00
45700;PMS5003;36277;32.852;-116.998;2022-10-17T03:06:34;1.00;1.00;0.40
45700;PMS5003;36277;32.852;-116.998;2022-10-17T03:09:01;1.00;1.00;1.00
45700;PMS5003;36277;32.852;-116.998;2022-10-17T03:11:27;0.60;0.60;0.60
45700;PMS5003;36277;32.852;-116.998;2022-10-17T03:13:53;1.00;1.00;0.40
45700;PMS5003;36277;32.852;-116.998;2022-10-17T03:16:22;1.00;1.00;1.00
45700;PMS5003;36277;32.852;-116.998;2022-10-17T03:18:48;1.00;1.00;1.00
45700;PMS5003;36277;32.852;-116.998;2022-10-17T03:21:14;1.00;1.00;0.80
45700;PMS5003;36277;32.852;-116.998;2022-10-17T03:23:40;1.20;1.20;1.00
45700;PMS5003;36277;32.852;-116.998;2022-10-17T03:26:07;0.00;0.00;0.00
45700;PMS5003;36277;32.852;-116.998;2022-10-17T03:28:33;1.00;1.00;1.00
45700;PMS5003;36277;32.852;-116.998;2022-10-17T03:31:05;0.00;0.00;0.00
45700;PMS5003;36277;32.852;-116.998;2022-10-17T03:33:32;0.00;0.00;0.00
45700;PMS5003;36277;32.852;-116.998;2022-10-17T03:35:58;0.80;0.80;0.80
45700;PMS5003;36277;32.852;-116.998;2022-10-17T03:38:29;0.80;0.80;0.60
45700;PMS5003;36277;32.852;-116.998;2022-10-17T03:40:55;1.00;1.00;1.00
45700;PMS5003;36277;32.852;-116.998;2022-10-17T03:43:21;0.00;0.00;0.00
45700;PMS5003;36277;32.852;-116.998;2022-10-17T03:45:48;1.00;1.00;1.00
45700;PMS5003;36277;32.852;-116.998;2022-10-17T03:48:14;1.20;1.20;1.00
45700;PMS5003;36277;32.852;-116.998;2022-10-17T03:50:40;1.00;1.00;1.00
45700;PMS5003;36277;32.852;-116.998;2022-10-17T03:53:06;1.80;1.80;1.80
45700;PMS5003;36277;32.852;-116.998;2022-10-17T03:55:32;1.20;1.20;1.00
45700;PMS5003;36277;32.852;-116.998;2022-10-17T03:57:59;0.60;0.60;0.60
45700;PMS5003;36277;32.852;-116.998;2022-10-17T04:00:25;0.00;0.00;0.00
45700;PMS5003;36277;32.852;-116.998;2022-10-17T04:02:51;1.00;1.00;1.00
45700;PMS5003;36277;32.852;-116.998;2022-10-17T04:05:18;1.00;1.00;1.00
45700;PMS5003;36277;32.852;-116.998;2022-10-17T04:07:44;0.00;0.00;0.00
45700;PMS5003;36277;32.852;-116.998;2022-10-17T04:10:10;1.00;1.00;1.00
45700;PMS5003;36277;32.852;-116.998;2022-10-17T04:12:37;0.00;0.00;0.00
45700;PMS5003;36277;32.852;-116.998;2022-10-17T04:15:03;1.00;1.00;1.00
45700;PMS5003;36277;32.852;-116.998;2022-10-17T04:17:30;1.00;1.00;0.80
45700;PMS5003;36277;32.852;-116.998;2022-10-17T04:19:56;1.00;1.00;1.00
45700;PMS5003;36277;32.852;-116.998;2022-10-17T04:22:23;0.40;0.40;0.40
45700;PMS5003;36277;32.852;-116.998;2022-10-17T04:24:52;1.00;1.00;1.00
45700;PMS5003;36277;32.852;-116.998;2022-10-17T04:27:18;1.00;1.00;1.00
45700;PMS5003;36277;32.852;-116.998;2022-10-17T04:29:44;1.00;1.00;1.00
45700;PMS5003;36277;32.852;-116.998;2022-10-17T04:32:11;2.80;2.40;1.80
45700;PMS5003;36277;32.852;-116.998;2022-10-17T04:34:37;10.40;10.40;9.00
45700;PMS5003;36277;32.852;-116.998;2022-10-17T04:37:03;11.40;11.40;10.00
45700;PMS5003;36277;32.852;-116.998;2022-10-17T04:39:29;21.00;21.00;18.00
45700;PMS5003;36277;32.852;-116.998;2022-10-17T04:41:55;12.40;12.40;11.20
45700;PMS5003;36277;32.852;-116.998;2022-10-17T04:44:22;12.00;12.00;11.00
45700;PMS5003;36277;32.852;-116.998;2022-10-17T04:46:48;11.20;11.20;9.40
45700;PMS5003;36277;32.852;-116.998;2022-10-17T04:49:14;9.80;9.80;8.00
45700;PMS5003;36277;32.852;-116.998;2022-10-17T04:51:40;7.40;7.40;6.40
45700;PMS5003;36277;32.852;-116.998;2022-10-17T04:54:07;6.60;6.60;5.60
45700;PMS5003;36277;32.852;-116.998;2022-10-17T04:56:33;6.20;6.20;5.60
45700;PMS5003;36277;32.852;-116.998;2022-10-17T04:58:59;3.80;3.80;3.40
45700;PMS5003;36277;32.852;-116.998;2022-10-17T05:01:25;4.80;4.80;4.00
45700;PMS5003;36277;32.852;-116.998;2022-10-17T05:03:52;3.00;3.00;2.80
45700;PMS5003;36277;32.852;-116.998;2022-10-17T05:06:22;3.40;3.40;3.00
45700;PMS5003;36277;32.852;-116.998;2022-10-17T05:08:49;3.00;3.00;2.80
45700;PMS5003;36277;32.852;-116.998;2022-10-17T05:11:26;2.40;2.40;2.00
45700;PMS5003;36277;32.852;-116.998;2022-10-17T05:13:55;3.00;3.00;2.80
45700;PMS5003;36277;32.852;-116.998;2022-10-17T05:16:26;3.20;3.20;3.00
45700;PMS5003;36277;32.852;-116.998;2022-10-17T05:18:54;3.00;3.00;2.00
45700;PMS5003;36277;32.852;-116.998;2022-10-17T05:21:22;1.60;1.60;1.40
45700;PMS5003;36277;32.852;-116.998;2022-10-17T05:23:50;2.20;2.20;2.00
45700;PMS5003;36277;32.852;-116.998;2022-10-17T05:26:16;1.40;1.40;1.20
45700;PMS5003;36277;32.852;-116.998;2022-10-17T05:28:43;2.00;2.00;2.00
45700;PMS5003;36277;32.852;-116.998;2022-10-17T05:31:09;2.40;2.40;2.40
45700;PMS5003;36277;32.852;-116.998;2022-10-17T05:33:37;1.20;1.20;1.00
45700;PMS5003;36277;32.852;-116.998;2022-10-17T05:36:04;1.60;1.60;1.60
45700;PMS5003;36277;32.852;-116.998;2022-10-17T05:38:31;3.00;3.00;2.60
45700;PMS5003;36277;32.852;-116.998;2022-10-17T05:41:02;2.00;2.00;2.00
45700;PMS5003;36277;32.852;-116.998;2022-10-17T05:43:30;1.00;1.00;1.00
45700;PMS5003;36277;32.852;-116.998;2022-10-17T05:45:56;1.40;1.40;1.00
45700;PMS5003;36277;32.852;-116.998;2022-10-17T05:48:23;0.80;0.80;0.80
45700;PMS5003;36277;32.852;-116.998;2022-10-17T05:50:55;0.80;0.80;0.60
45700;PMS5003;36277;32.852;-116.998;2022-10-17T05:53:24;1.60;1.60;1.40
45700;PMS5003;36277;32.852;-116.998;2022-10-17T05:55:57;2.00;2.00;2.00
45700;PMS5003;36277;32.852;-116.998;2022-10-17T05:58:25;1.40;1.40;1.00
45700;PMS5003;36277;32.852;-116.998;2022-10-17T06:00:56;1.00;1.00;1.00
45700;PMS5003;36277;32.852;-116.998;2022-10-17T06:03:23;1.00;1.00;1.00
45700;PMS5003;36277;32.852;-116.998;2022-10-17T06:05:50;1.00;1.00;1.00
45700;PMS5003;36277;32.852;-116.998;2022-10-17T06:08:16;1.60;1.60;0.60
45700;PMS5003;36277;32.852;-116.998;2022-10-17T06:10:46;0.20;0.20;0.00
45700;PMS5003;36277;32.852;-116.998;2022-10-17T06:13:13;1.00;1.00;1.00
45700;PMS5003;36277;32.852;-116.998;2022-10-17T06:15:40;0.00;0.00;0.00
45700;PMS5003;36277;32.852;-116.998;2022-10-17T06:18:06;1.00;1.00;0.80
45700;PMS5003;36277;32.852;-116.998;2022-10-17T06:20:33;0.60;0.60;0.60
45700;PMS5003;36277;32.852;-116.998;2022-10-17T06:22:59;1.00;1.00;1.00
45700;PMS5003;36277;32.852;-116.998;2022-10-17T06:25:25;1.00;1.00;1.00
45700;PMS5003;36277;32.852;-116.998;2022-10-17T06:27:51;0.60;0.60;0.00
45700;PMS5003;36277;32.852;-116.998;2022-10-17T06:30:17;0.00;0.00;0.00
45700;PMS5003;36277;32.852;-116.998;2022-10-17T06:32:44;0.60;0.60;0.60
45700;PMS5003;36277;32.852;-116.998;2022-10-17T06:35:10;0.20;0.20;0.00
45700;PMS5003;36277;32.852;-116.998;2022-10-17T06:37:36;0.40;0.40;0.40
45700;PMS5003;36277;32.852;-116.998;2022-10-17T06:40:03;0.00;0.00;0.00
45700;PMS5003;36277;32.852;-116.998;2022-10-17T06:42:29;0.00;0.00;0.00
45700;PMS5003;36277;32.852;-116.998;2022-10-17T06:44:56;1.00;1.00;0.20
45700;PMS5003;36277;32.852;-116.998;2022-10-17T06:47:22;0.00;0.00;0.00
45700;PMS5003;36277;32.852;-116.998;2022-10-17T06:49:48;0.00;0.00;0.00
45700;PMS5003;36277;32.852;-116.998;2022-10-17T06:52:14;0.60;0.60;0.20
45700;PMS5003;36277;32.852;-116.998;2022-10-17T06:54:42;1.00;1.00;0.80
45700;PMS5003;36277;32.852;-116.998;2022-10-17T06:57:09;0.80;0.80;0.80
45700;PMS5003;36277;32.852;-116.998;2022-10-17T06:59:35;0.00;0.00;0.00
45700;PMS5003;36277;32.852;-116.998;2022-10-17T07:02:01;1.00;1.00;1.00
45700;PMS5003;36277;32.852;-116.998;2022-10-17T07:04:28;1.00;1.00;0.00
45700;PMS5003;36277;32.852;-116.998;2022-10-17T07:06:54;0.00;0.00;0.00
45700;PMS5003;36277;32.852;-116.998;2022-10-17T07:09:20;0.00;0.00;0.00
45700;PMS5003;36277;32.852;-116.998;2022-10-17T07:11:48;1.00;1.00;0.80
45700;PMS5003;36277;32.852;-116.998;2022-10-17T07:14:14;0.20;0.20;0.00
45700;PMS5003;36277;32.852;-116.998;2022-10-17T07:16:40;0.20;0.20;0.00
45700;PMS5003;36277;32.852;-116.998;2022-10-17T07:19:07;0.80;0.80;0.60
45700;PMS5003;36277;32.852;-116.998;2022-10-17T07:21:33;1.00;1.00;1.00
45700;PMS5003;36277;32.852;-116.998;2022-10-17T07:23:59;1.00;1.00;1.00
45700;PMS5003;36277;32.852;-116.998;2022-10-17T07:26:25;0.60;0.60;0.00
45700;PMS5003;36277;32.852;-116.998;2022-10-17T07:28:53;1.00;1.00;1.00
45700;PMS5003;36277;32.852;-116.998;2022-10-17T07:31:20;0.80;0.80;0.40
45700;PMS5003;36277;32.852;-116.998;2022-10-17T07:33:48;0.40;0.40;0.00
45700;PMS5003;36277;32.852;-116.998;2022-10-17T07:36:14;0.00;0.00;0.00
45700;PMS5003;36277;32.852;-116.998;2022-10-17T07:38:41;0.40;0.40;0.20
45700;PMS5003;36277;32.852;-116.998;2022-10-17T07:41:08;0.00;0.00;0.00
45700;PMS5003;36277;32.852;-116.998;2022-10-17T07:43:36;0.00;0.00;0.00
45700;PMS5003;36277;32.852;-116.998;2022-10-17T07:46:03;0.60;0.60;0.20
45700;PMS5003;36277;32.852;-116.998;2022-10-17T07:48:30;0.20;0.20;0.20
45700;PMS5003;36277;32.852;-116.998;2022-10-17T07:50:57;0.60;0.60;0.60
45700;PMS5003;36277;32.852;-116.998;2022-10-17T07:53:26;0.00;0.00;0.00
45700;PMS5003;36277;32.852;-116.998;2022-10-17T07:55:52;0.00;0.00;0.00
45700;PMS5003;36277;32.852;-116.998;2022-10-17T07:58:18;0.00;0.00;0.00
45700;PMS5003;36277;32.852;-116.998;2022-10-17T08:00:44;0.00;0.00;0.00
45700;PMS5003;36277;32.852;-116.998;2022-10-17T08:03:15;0.20;0.20;0.00
45700;PMS5003;36277;32.852;-116.998;2022-10-17T08:05:41;0.00;0.00;0.00
45700;PMS5003;36277;32.852;-116.998;2022-10-17T08:08:07;0.00;0.00;0.00
45700;PMS5003;36277;32.852;-116.998;2022-10-17T08:10:34;0.80;0.80;0.80
45700;PMS5003;36277;32.852;-116.998;2022-10-17T08:13:01;0.00;0.00;0.00
45700;PMS5003;36277;32.852;-116.998;2022-10-17T08:15:27;0.40;0.40;0.00
45700;PMS5003;36277;32.852;-116.998;2022-10-17T08:17:54;0.00;0.00;0.00
45700;PMS5003;36277;32.852;-116.998;2022-10-17T08:20:20;0.00;0.00;0.00
45700;PMS5003;36277;32.852;-116.998;2022-10-17T08:22:53;0.00;0.00;0.00
45700;PMS5003;36277;32.852;-116.998;2022-10-17T08:25:20;0.80;0.80;0.80
45700;PMS5003;36277;32.852;-116.998;2022-10-17T08:27:46;0.00;0.00;0.00
45700;PMS5003;36277;32.852;-116.998;2022-10-17T08:30:12;0.00;0.00;0.00
45700;PMS5003;36277;32.852;-116.998;2022-10-17T08:32:39;0.00;0.00;0.00
45700;PMS5003;36277;32.852;-116.998;2022-10-17T08:35:05;0.00;0.00;0.00
45700;PMS5003;36277;32.852;-116.998;2022-10-17T08:37:32;0.00;0.00;0.00
45700;PMS5003;36277;32.852;-116.998;2022-10-17T08:39:58;0.00;0.00;0.00
45700;PMS5003;36277;32.852;-116.998;2022-10-17T08:45:24;0.00;0.00;0.00
45700;PMS5003;36277;32.852;-116.998;2022-10-17T08:47:58;0.40;0.40;0.00
45700;PMS5003;36277;32.852;-116.998;2022-10-17T08:56:24;0.00;0.00;0.00
45700;PMS5003;36277;32.852;-116.998;2022-10-17T08:59:47;0.00;0.00;0.00
45700;PMS5003;36277;32.852;-116.998;2022-10-17T09:07:26;0.00;0.00;0.00
45700;PMS5003;36277;32.852;-116.998;2022-10-17T09:10:03;0.40;0.40;0.20
45700;PMS5003;36277;32.852;-116.998;2022-10-17T09:15:53;0.00;0.00;0.00
45700;PMS5003;36277;32.852;-116.998;2022-10-17T09:18:37;0.00;0.00;0.00
45700;PMS5003;36277;32.852;-116.998;2022-10-17T09:24:17;0.20;0.20;0.20
45700;PMS5003;36277;32.852;-116.998;2022-10-17T09:26:50;0.40;0.40;0.40
45700;PMS5003;36277;32.852;-116.998;2022-10-17T09:29:22;1.00;1.00;1.00
45700;PMS5003;36277;32.852;-116.998;2022-10-17T09:31:53;0.40;0.40;0.00
45700;PMS5003;36277;32.852;-116.998;2022-10-17T09:34:23;1.00;1.00;1.00
45700;PMS5003;36277;32.852;-116.998;2022-10-17T09:36:52;1.00;1.00;0.80
45700;PMS5003;36277;32.852;-116.998;2022-10-17T09:39:21;0.80;0.80;0.60
45700;PMS5003;36277;32.852;-116.998;2022-10-17T09:41:57;0.00;0.00;0.00
45700;PMS5003;36277;32.852;-116.998;2022-10-17T09:44:28;1.20;1.20;1.20
45700;PMS5003;36277;32.852;-116.998;2022-10-17T09:49:33;0.00;0.00;0.00
45700;PMS5003;36277;32.852;-116.998;2022-10-17T09:52:02;0.00;0.00;0.00
45700;PMS5003;36277;32.852;-116.998;2022-10-17T09:54:35;1.00;1.00;0.40
45700;PMS5003;36277;32.852;-116.998;2022-10-17T09:57:06;0.80;0.80;0.80
45700;PMS5003;36277;32.852;-116.998;2022-10-17T09:59:34;0.40;0.40;0.40
45700;PMS5003;36277;32.852;-116.998;2022-10-17T10:02:13;1.00;1.00;1.00
45700;PMS5003;36277;32.852;-116.998;2022-10-17T10:04:54;0.00;0.00;0.00
45700;PMS5003;36277;32.852;-116.998;2022-10-17T10:07:30;0.60;0.60;0.60
45700;PMS5003;36277;32.852;-116.998;2022-10-17T10:10:06;0.00;0.00;0.00
45700;PMS5003;36277;32.852;-116.998;2022-10-17T10:13:00;0.00;0.00;0.00
45700;PMS5003;36277;32.852;-116.998;2022-10-17T10:15:31;0.00;0.00;0.00
45700;PMS5003;36277;32.852;-116.998;2022-10-17T10:18:47;1.00;1.00;1.00
45700;PMS5003;36277;32.852;-116.998;2022-10-17T10:21:03;1.00;1.00;1.00
45700;PMS5003;36277;32.852;-116.998;2022-10-17T10:23:32;0.00;0.00;0.00
45700;PMS5003;36277;32.852;-116.998;2022-10-17T10:26:09;0.60;0.60;0.00
45700;PMS5003;36277;32.852;-116.998;2022-10-17T10:28:49;0.80;0.80;0.80
45700;PMS5003;36277;32.852;-116.998;2022-10-17T10:31:25;1.00;1.00;1.00
45700;PMS5003;36277;32.852;-116.998;2022-10-17T10:33:54;1.00;1.00;1.00
45700;PMS5003;36277;32.852;-116.998;2022-10-17T10:36:21;1.00;1.00;1.00
45700;PMS5003;36277;32.852;-116.998;2022-10-17T10:38:52;0.20;0.20;0.20
45700;PMS5003;36277;32.852;-116.998;2022-10-17T10:41:21;1.00;1.00;0.80
45700;PMS5003;36277;32.852;-116.998;2022-10-17T10:43:48;1.00;1.00;1.00
45700;PMS5003;36277;32.852;-116.998;2022-10-17T10:46:26;1.00;1.00;1.00
45700;PMS5003;36277;32.852;-116.998;2022-10-17T10:48:55;1.00;1.00;1.00
45700;PMS5003;36277;32.852;-116.998;2022-10-17T10:51:30;0.40;0.40;0.20
45700;PMS5003;36277;32.852;-116.998;2022-10-17T10:56:37;1.00;1.00;1.00
45700;PMS5003;36277;32.852;-116.998;2022-10-17T11:02:44;1.00;1.00;1.00
45700;PMS5003;36277;32.852;-116.998;2022-10-17T11:05:16;1.00;1.00;1.00
45700;PMS5003;36277;32.852;-116.998;2022-10-17T11:07:50;0.00;0.00;0.00
45700;PMS5003;36277;32.852;-116.998;2022-10-17T11:10:56;1.00;1.00;1.00
45700;PMS5003;36277;32.852;-116.998;2022-10-17T11:13:18;1.00;1.00;1.00
45700;PMS5003;36277;32.852;-116.998;2022-10-17T11:16:26;1.00;1.00;1.00
45700;PMS5003;36277;32.852;-116.998;2022-10-17T11:27:04;1.00;1.00;1.00
45700;PMS5003;36277;32.852;-116.998;2022-10-17T11:29:33;0.40;0.40;0.00
45700;PMS5003;36277;32.852;-116.998;2022-10-17T11:32:11;1.00;1.00;1.00
45700;PMS5003;36277;32.852;-116.998;2022-10-17T11:34:48;1.00;1.00;1.00
45700;PMS5003;36277;32.852;-116.998;2022-10-17T11:37:27;1.00;1.00;1.00
45700;PMS5003;36277;32.852;-116.998;2022-10-17T11:42:49;1.00;1.00;1.00
45700;PMS5003;36277;32.852;-116.998;2022-10-17T11:45:17;1.00;1.00;1.00
45700;PMS5003;36277;32.852;-116.998;2022-10-17T11:47:54;0.60;0.60;0.60
45700;PMS5003;36277;32.852;-116.998;2022-10-17T11:50:32;1.00;1.00;1.00
45700;PMS5003;36277;32.852;-116.998;2022-10-17T11:55:36;1.00;1.00;1.00
45700;PMS5003;36277;32.852;-116.998;2022-10-17T12:09:17;1.00;1.00;1.00
45700;PMS5003;36277;32.852;-116.998;2022-10-17T12:12:05;1.00;1.00;1.00
45700;PMS5003;36277;32.852;-116.998;2022-10-17T12:14:38;1.00;1.00;1.00
45700;PMS5003;36277;32.852;-116.998;2022-10-17T12:22:49;0.60;0.60;0.60
45700;PMS5003;36277;32.852;-116.998;2022-10-17T12:25:31;1.00;1.00;1.00
45700;PMS5003;36277;32.852;-116.998;2022-10-17T12:30:32;1.00;1.00;1.00
45700;PMS5003;36277;32.852;-116.998;2022-10-17T12:35:28;1.00;1.00;1.00
45700;PMS5003;36277;32.852;-116.998;2022-10-17T12:37:59;1.80;1.80;1.20
45700;PMS5003;36277;32.852;-116.998;2022-10-17T12:45:45;1.80;1.80;1.60
45700;PMS5003;36277;32.852;-116.998;2022-10-17T12:51:09;1.00;1.00;1.00
45700;PMS5003;36277;32.852;-116.998;2022-10-17T12:56:15;2.40;2.40;2.20
45700;PMS5003;36277;32.852;-116.998;2022-10-17T12:58:49;1.00;1.00;0.80
45700;PMS5003;36277;32.852;-116.998;2022-10-17T13:01:26;1.00;1.00;1.00
45700;PMS5003;36277;32.852;-116.998;2022-10-17T13:03:55;1.00;1.00;1.00
45700;PMS5003;36277;32.852;-116.998;2022-10-17T13:06:27;2.00;2.00;1.20
45700;PMS5003;36277;32.852;-116.998;2022-10-17T13:09:00;2.00;2.00;2.00
45700;PMS5003;36277;32.852;-116.998;2022-10-17T13:11:31;1.80;1.80;1.80
45700;PMS5003;36277;32.852;-116.998;2022-10-17T13:14:01;2.80;2.80;2.60
45700;PMS5003;36277;32.852;-116.998;2022-10-17T13:16:35;1.40;1.40;1.40
45700;PMS5003;36277;32.852;-116.998;2022-10-17T13:19:11;1.40;1.40;1.00
45700;PMS5003;36277;32.852;-116.998;2022-10-17T13:21:48;2.00;2.00;2.00
45700;PMS5003;36277;32.852;-116.998;2022-10-17T13:24:19;2.20;2.20;2.00
45700;PMS5003;36277;32.852;-116.998;2022-10-17T13:26:47;2.00;2.00;1.60
45700;PMS5003;36277;32.852;-116.998;2022-10-17T13:29:14;1.00;1.00;1.00
45700;PMS5003;36277;32.852;-116.998;2022-10-17T13:31:42;1.00;1.00;1.00
45700;PMS5003;36277;32.852;-116.998;2022-10-17T13:34:16;1.80;1.80;1.40
45700;PMS5003;36277;32.852;-116.998;2022-10-17T13:36:49;2.00;2.00;2.00
45700;PMS5003;36277;32.852;-116.998;2022-10-17T13:39:21;1.00;1.00;1.00
45700;PMS5003;36277;32.852;-116.998;2022-10-17T13:41:49;2.00;2.00;1.20
45700;PMS5003;36277;32.852;-116.998;2022-10-17T13:44:24;1.40;1.40;1.00
45700;PMS5003;36277;32.852;-116.998;2022-10-17T13:46:52;1.60;1.60;1.60
45700;PMS5003;36277;32.852;-116.998;2022-10-17T13:49:22;2.00;2.00;2.00
45700;PMS5003;36277;32.852;-116.998;2022-10-17T13:51:59;1.20;1.20;1.00
45700;PMS5003;36277;32.852;-116.998;2022-10-17T13:54:32;2.00;2.00;2.00
45700;PMS5003;36277;32.852;-116.998;2022-10-17T13:57:19;1.60;1.60;1.00
45700;PMS5003;36277;32.852;-116.998;2022-10-17T13:59:49;2.00;2.00;1.00
45700;PMS5003;36277;32.852;-116.998;2022-10-17T14:02:20;1.80;1.80;1.60
45700;PMS5003;36277;32.852;-116.998;2022-10-17T14:05:02;2.20;2.20;2.00
45700;PMS5003;36277;32.852;-116.998;2022-10-17T14:10:24;1.80;1.80;1.60
45700;PMS5003;36277;32.852;-116.998;2022-10-17T14:12:56;1.00;1.00;1.00
45700;PMS5003;36277;32.852;-116.998;2022-10-17T14:15:30;2.00;2.00;1.80
45700;PMS5003;36277;32.852;-116.998;2022-10-17T14:18:06;2.00;2.00;1.20
45700;PMS5003;36277;32.852;-116.998;2022-10-17T14:20:39;2.00;2.00;2.00
45700;PMS5003;36277;32.852;-116.998;2022-10-17T14:23:24;2.00;2.00;2.00
45700;PMS5003;36277;32.852;-116.998;2022-10-17T14:26:08;2.00;2.00;1.60
45700;PMS5003;36277;32.852;-116.998;2022-10-17T14:28:40;3.60;3.60;2.20
45700;PMS5003;36277;32.852;-116.998;2022-10-17T14:31:17;3.20;3.20;3.00
45700;PMS5003;36277;32.852;-116.998;2022-10-17T14:33:45;2.40;2.40;2.40
45700;PMS5003;36277;32.852;-116.998;2022-10-17T14:36:13;3.00;3.00;2.00
45700;PMS5003;36277;32.852;-116.998;2022-10-17T14:38:44;2.00;2.00;2.00
45700;PMS5003;36277;32.852;-116.998;2022-10-17T14:41:13;3.00;3.00;2.20
45700;PMS5003;36277;32.852;-116.998;2022-10-17T14:43:57;3.00;3.00;2.00
45700;PMS5003;36277;32.852;-116.998;2022-10-17T14:46:26;4.00;4.00;3.00
45700;PMS5003;36277;32.852;-116.998;2022-10-17T14:49:04;3.20;3.20;3.00
45700;PMS5003;36277;32.852;-116.998;2022-10-17T14:51:33;4.00;4.00;3.00
45700;PMS5003;36277;32.852;-116.998;2022-10-17T14:54:01;2.20;2.20;2.00
45700;PMS5003;36277;32.852;-116.998;2022-10-17T14:56:42;2.00;2.00;2.00
45700;PMS5003;36277;32.852;-116.998;2022-10-17T14:59:16;2.60;2.60;2.00
45700;PMS5003;36277;32.852;-116.998;2022-10-17T15:01:47;2.80;2.80;2.00
45700;PMS5003;36277;32.852;-116.998;2022-10-17T15:04:14;2.60;2.60;2.40
45700;PMS5003;36277;32.852;-116.998;2022-10-17T15:06:40;3.00;3.00;3.00
45700;PMS5003;36277;32.852;-116.998;2022-10-17T15:09:07;3.00;3.00;2.00
45700;PMS5003;36277;32.852;-116.998;2022-10-17T15:11:35;1.80;1.80;1.60
45700;PMS5003;36277;32.852;-116.998;2022-10-17T15:14:01;3.00;3.00;3.00
45700;PMS5003;36277;32.852;-116.998;2022-10-17T15:16:31;2.00;2.00;1.80
45700;PMS5003;36277;32.852;-116.998;2022-10-17T15:18:59;3.00;3.00;2.60
45700;PMS5003;36277;32.852;-116.998;2022-10-17T15:21:26;3.40;3.40;2.60
45700;PMS5003;36277;32.852;-116.998;2022-10-17T15:23:53;3.00;3.00;2.60
45700;PMS5003;36277;32.852;-116.998;2022-10-17T15:26:24;2.00;2.00;2.00
45700;PMS5003;36277;32.852;-116.998;2022-10-17T15:28:54;2.40;2.40;2.00
45700;PMS5003;36277;32.852;-116.998;2022-10-17T15:31:21;2.80;2.80;2.00
45700;PMS5003;36277;32.852;-116.998;2022-10-17T15:33:48;0.60;0.60;0.00
45700;PMS5003;36277;32.852;-116.998;2022-10-17T15:36:25;1.00;1.00;1.00
45700;PMS5003;36277;32.852;-116.998;2022-10-17T15:38:52;2.00;2.00;1.20
45700;PMS5003;36277;32.852;-116.998;2022-10-17T15:41:27;3.00;3.00;2.40
45700;PMS5003;36277;32.852;-116.998;2022-10-17T15:43:54;2.00;2.00;2.00
45700;PMS5003;36277;32.852;-116.998;2022-10-17T15:46:25;3.00;3.00;3.00
45700;PMS5003;36277;32.852;-116.998;2022-10-17T15:49:00;2.60;2.60;2.60
45700;PMS5003;36277;32.852;-116.998;2022-10-17T15:51:29;3.60;3.60;2.60
45700;PMS5003;36277;32.852;-116.998;2022-10-17T15:53:55;2.00;2.00;2.00
45700;PMS5003;36277;32.852;-116.998;2022-10-17T15:56:24;3.00;3.00;2.00